sensor_id;sensor_type;location;lat;lon;timestamp;pressure;altitude;pressure_sealevel;temperature;humidity
7052;BME280;3567;52.444;13.556;2023-02-01T00:01:13;100695.97;;;3.61;100.00
7052;BME280;3567;52.444;13.556;2023-02-01T00:03:39;100685.38;;;3.61;100.00
7052;BME280;3567;52.444;13.556;2023-02-01T00:06:04;100691.03;;;3.58;100.00
7052;BME280;3567;52.444;13.556;2023-02-01T00:08:29;100693.16;;;3.63;100.00
7052;BME280;3567;52.444;13.556;2023-02-01T00:11:03;100695.59;;;3.64;100.00
7052;BME280;3567;52.444;13.556;2023-02-01T00:13:30;100694.22;;;3.68;100.00
7052;BME280;3567;52.444;13.556;2023-02-01T00:16:09;100687.31;;;3.67;100.00
7052;BME280;3567;52.444;13.556;2023-02-01T00:18:35;100693.41;;;3.68;100.00
7052;BME280;3567;52.444;13.556;2023-02-01T00:21:01;100706.00;;;3.66;100.00
7052;BME280;3567;52.444;13.556;2023-02-01T00:23:27;100698.06;;;3.66;100.00
7052;BME280;3567;52.444;13.556;2023-02-01T00:25:52;100686.19;;;3.62;100.00
7052;BME280;3567;52.444;13.556;2023-02-01T00:28:18;100706.56;;;3.61;100.00
7052;BME280;3567;52.444;13.556;2023-02-01T00:30:43;100689.84;;;3.61;100.00
7052;BME280;3567;52.444;13.556;2023-02-01T00:33:09;100701.09;;;3.63;100.00
7052;BME280;3567;52.444;13.556;2023-02-01T00:35:35;100697.97;;;3.59;100.00
7052;BME280;3567;52.444;13.556;2023-02-01T00:38:01;100698.06;;;3.66;100.00
7052;BME280;3567;52.444;13.556;2023-02-01T00:40:26;100700.34;;;3.69;100.00
7052;BME280;3567;52.444;13.556;2023-02-01T00:42:52;100694.22;;;3.68;100.00
7052;BME280;3567;52.444;13.556;2023-02-01T00:45:17;100700.16;;;3.71;100.00
7052;BME280;3567;52.444;13.556;2023-02-01T00:47:43;100695.47;;;3.73;100.00
7052;BME280;3567;52.444;13.556;2023-02-01T00:50:09;100704.72;;;3.77;100.00
7052;BME280;3567;52.444;13.556;2023-02-01T00:52:34;100706.75;;;3.75;100.00
7052;BME280;3567;52.444;13.556;2023-02-01T00:54:59;100701.78;;;3.72;100.00
7052;BME280;3567;52.444;13.556;2023-02-01T00:57:25;100707.47;;;3.68;100.00
7052;BME280;3567;52.444;13.556;2023-02-01T00:59:50;100703.53;;;3.64;100.00
7052;BME280;3567;52.444;13.556;2023-02-01T01:02:16;100717.16;;;3.61;100.00
7052;BME280;3567;52.444;13.556;2023-02-01T01:04:41;100722.63;;;3.60;100.00
7052;BME280;3567;52.444;13.556;2023-02-01T01:07:06;100709.84;;;3.63;100.00
7052;BME280;3567;52.444;13.556;2023-02-01T01:09:32;100719.44;;;3.64;100.00
7052;BME280;3567;52.444;13.556;2023-02-01T01:11:57;100729.75;;;3.59;100.00
7052;BME280;3567;52.444;13.556;2023-02-01T01:14:30;100718.25;;;3.52;100.00
7052;BME280;3567;52.444;13.556;2023-02-01T01:16:55;100722.81;;;3.58;100.00
7052;BME280;3567;52.444;13.556;2023-02-01T01:19:20;100720.91;;;3.52;100.00
7052;BME280;3567;52.444;13.556;2023-02-01T01:21:46;100711.78;;;3.55;100.00
7052;BME280;3567;52.444;13.556;2023-02-01T01:24:11;100708.03;;;3.49;100.00
7052;BME280;3567;52.444;13.556;2023-02-01T01:26:37;100690.31;;;3.50;100.00
7052;BME280;3567;52.444;13.556;2023-02-01T01:29:02;100695.78;;;3.48;100.00
7052;BME280;3567;52.444;13.556;2023-02-01T01:31:29;100699.63;;;3.46;100.00
7052;BME280;3567;52.444;13.556;2023-02-01T01:33:57;100684.81;;;3.51;100.00
7052;BME280;3567;52.444;13.556;2023-02-01T01:36:23;100687.66;;;3.50;100.00
7052;BME280;3567;52.444;13.556;2023-02-01T01:38:48;100691.59;;;3.54;100.00
7052;BME280;3567;52.444;13.556;2023-02-01T01:41:32;100678.81;;;3.57;100.00
7052;BME280;3567;52.444;13.556;2023-02-01T01:43:58;100674.75;;;3.61;100.00
7052;BME280;3567;52.444;13.556;2023-02-01T01:51:30;100675.69;;;3.54;100.00
7052;BME280;3567;52.444;13.556;2023-02-01T01:54:27;100669.03;;;3.58;100.00
7052;BME280;3567;52.444;13.556;2023-02-01T01:56:58;100665.38;;;3.59;100.00
7052;BME280;3567;52.444;13.556;2023-02-01T01:59:25;100667.47;;;3.63;100.00
7052;BME280;3567;52.444;13.556;2023-02-01T02:01:51;100660.53;;;3.62;100.00
7052;BME280;3567;52.444;13.556;2023-02-01T02:04:18;100668.50;;;3.62;100.00
7052;BME280;3567;52.444;13.556;2023-02-01T02:07:03;100654.50;;;3.68;100.00
7052;BME280;3567;52.444;13.556;2023-02-01T02:09:29;100668.00;;;3.74;100.00
7052;BME280;3567;52.444;13.556;2023-02-01T02:11:55;100675.22;;;3.80;100.00
7052;BME280;3567;52.444;13.556;2023-02-01T02:14:22;100678.22;;;3.77;100.00
7052;BME280;3567;52.444;13.556;2023-02-01T02:17:17;100650.97;;;3.83;100.00
7052;BME280;3567;52.444;13.556;2023-02-01T02:26:21;100664.13;;;3.91;100.00
7052;BME280;3567;52.444;13.556;2023-02-01T02:34:34;100654.81;;;3.95;100.00
7052;BME280;3567;52.444;13.556;2023-02-01T02:45:00;100645.94;;;3.88;100.00
7052;BME280;3567;52.444;13.556;2023-02-01T02:50:17;100639.66;;;3.89;100.00
7052;BME280;3567;52.444;13.556;2023-02-01T02:53:10;100637.16;;;3.87;100.00
7052;BME280;3567;52.444;13.556;2023-02-01T02:55:57;100632.94;;;3.93;100.00
7052;BME280;3567;52.444;13.556;2023-02-01T02:58:42;100642.13;;;3.90;100.00
7052;BME280;3567;52.444;13.556;2023-02-01T03:01:28;100640.91;;;3.93;100.00
7052;BME280;3567;52.444;13.556;2023-02-01T03:04:12;100644.97;;;3.89;100.00
7052;BME280;3567;52.444;13.556;2023-02-01T03:06:45;100651.50;;;3.93;100.00
7052;BME280;3567;52.444;13.556;2023-02-01T03:09:18;100644.22;;;3.95;100.00
7052;BME280;3567;52.444;13.556;2023-02-01T03:11:47;100626.63;;;3.94;100.00
7052;BME280;3567;52.444;13.556;2023-02-01T03:14:35;100629.13;;;3.96;100.00
7052;BME280;3567;52.444;13.556;2023-02-01T03:17:08;100623.81;;;3.96;100.00
7052;BME280;3567;52.444;13.556;2023-02-01T03:19:43;100620.78;;;3.99;100.00
7052;BME280;3567;52.444;13.556;2023-02-01T03:22:15;100617.97;;;4.00;100.00
7052;BME280;3567;52.444;13.556;2023-02-01T03:24:47;100619.97;;;3.98;100.00
7052;BME280;3567;52.444;13.556;2023-02-01T03:27:24;100610.38;;;3.97;100.00
7052;BME280;3567;52.444;13.556;2023-02-01T03:29:59;100612.81;;;3.99;100.00
7052;BME280;3567;52.444;13.556;2023-02-01T03:32:26;100599.84;;;4.04;100.00
7052;BME280;3567;52.444;13.556;2023-02-01T03:34:52;100594.38;;;4.05;100.00
7052;BME280;3567;52.444;13.556;2023-02-01T03:37:26;100596.16;;;4.05;100.00
7052;BME280;3567;52.444;13.556;2023-02-01T03:40:03;100583.75;;;4.05;100.00
7052;BME280;3567;52.444;13.556;2023-02-01T03:42:40;100585.66;;;4.11;100.00
7052;BME280;3567;52.444;13.556;2023-02-01T03:45:13;100587.84;;;4.08;100.00
7052;BME280;3567;52.444;13.556;2023-02-01T03:47:47;100587.66;;;4.09;100.00
7052;BME280;3567;52.444;13.556;2023-02-01T03:50:17;100591.72;;;4.05;100.00
7052;BME280;3567;52.444;13.556;2023-02-01T03:53:08;100585.00;;;4.09;100.00
7052;BME280;3567;52.444;13.556;2023-02-01T03:55:32;100582.34;;;4.09;100.00
7052;BME280;3567;52.444;13.556;2023-02-01T03:58:06;100579.13;;;4.14;100.00
7052;BME280;3567;52.444;13.556;2023-02-01T04:00:32;100583.63;;;4.13;100.00
7052;BME280;3567;52.444;13.556;2023-02-01T04:02:58;100581.97;;;4.12;100.00
7052;BME280;3567;52.444;13.556;2023-02-01T04:05:24;100583.63;;;4.13;100.00
7052;BME280;3567;52.444;13.556;2023-02-01T04:07:49;100583.25;;;4.16;100.00
7052;BME280;3567;52.444;13.556;2023-02-01T04:10:15;100584.88;;;4.17;100.00
7052;BME280;3567;52.444;13.556;2023-02-01T04:12:40;100585.13;;;4.23;100.00
7052;BME280;3567;52.444;13.556;2023-02-01T04:15:07;100579.84;;;4.23;100.00
7052;BME280;3567;52.444;13.556;2023-02-01T04:17:33;100580.50;;;4.31;100.00
7052;BME280;3567;52.444;13.556;2023-02-01T04:19:58;100586.44;;;4.33;100.00
7052;BME280;3567;52.444;13.556;2023-02-01T04:22:24;100587.88;;;4.36;100.00
7052;BME280;3567;52.444;13.556;2023-02-01T04:24:49;100586.25;;;4.35;100.00
7052;BME280;3567;52.444;13.556;2023-02-01T04:27:14;100587.72;;;4.37;100.00
7052;BME280;3567;52.444;13.556;2023-02-01T04:29:40;100590.41;;;4.44;100.00
7052;BME280;3567;52.444;13.556;2023-02-01T04:32:06;100591.22;;;4.44;100.00
7052;BME280;3567;52.444;13.556;2023-02-01T04:34:34;100586.19;;;4.50;100.00
7052;BME280;3567;52.444;13.556;2023-02-01T04:37:00;100585.16;;;4.51;100.00
7052;BME280;3567;52.444;13.556;2023-02-01T04:39:25;100592.91;;;4.52;100.00
7052;BME280;3567;52.444;13.556;2023-02-01T04:41:50;100591.72;;;4.55;100.00
7052;BME280;3567;52.444;13.556;2023-02-01T04:44:17;100579.06;;;4.57;100.00
7052;BME280;3567;52.444;13.556;2023-02-01T04:46:44;100586.47;;;4.61;100.00
7052;BME280;3567;52.444;13.556;2023-02-01T04:49:11;100587.53;;;4.67;100.00
7052;BME280;3567;52.444;13.556;2023-02-01T04:51:36;100580.56;;;4.66;100.00
7052;BME280;3567;52.444;13.556;2023-02-01T04:54:02;100581.41;;;4.66;99.36
7052;BME280;3567;52.444;13.556;2023-02-01T04:56:28;100577.34;;;4.70;100.00
7052;BME280;3567;52.444;13.556;2023-02-01T04:58:53;100577.97;;;4.72;100.00
7052;BME280;3567;52.444;13.556;2023-02-01T05:01:18;100575.94;;;4.75;98.95
7052;BME280;3567;52.444;13.556;2023-02-01T05:03:44;100573.91;;;4.77;99.24
7052;BME280;3567;52.444;13.556;2023-02-01T05:06:09;100568.22;;;4.80;97.94
7052;BME280;3567;52.444;13.556;2023-02-01T05:08:34;100572.13;;;4.84;99.76
7052;BME280;3567;52.444;13.556;2023-02-01T05:11:00;100555.56;;;4.82;97.73
7052;BME280;3567;52.444;13.556;2023-02-01T05:13:28;100558.84;;;4.84;99.53
7052;BME280;3567;52.444;13.556;2023-02-01T05:16:12;100547.41;;;4.83;97.82
7052;BME280;3567;52.444;13.556;2023-02-01T05:18:37;100556.84;;;4.86;97.00
7052;BME280;3567;52.444;13.556;2023-02-01T05:21:03;100560.09;;;4.88;97.64
7052;BME280;3567;52.444;13.556;2023-02-01T05:23:29;100554.78;;;4.88;97.89
7052;BME280;3567;52.444;13.556;2023-02-01T05:25:59;100550.28;;;4.88;97.95
7052;BME280;3567;52.444;13.556;2023-02-01T05:28:26;100540.50;;;4.89;98.55
7052;BME280;3567;52.444;13.556;2023-02-01T05:30:51;100552.13;;;4.88;98.57
7052;BME280;3567;52.444;13.556;2023-02-01T05:33:16;100550.28;;;4.88;97.29
7052;BME280;3567;52.444;13.556;2023-02-01T05:35:41;100552.75;;;4.90;97.53
7052;BME280;3567;52.444;13.556;2023-02-01T05:38:07;100546.44;;;4.91;97.20
7052;BME280;3567;52.444;13.556;2023-02-01T05:40:32;100541.97;;;4.91;97.37
7052;BME280;3567;52.444;13.556;2023-02-01T05:42:58;100540.13;;;4.92;97.16
7052;BME280;3567;52.444;13.556;2023-02-01T05:45:23;100546.25;;;4.92;96.97
7052;BME280;3567;52.444;13.556;2023-02-01T05:47:48;100540.13;;;4.92;97.73
7052;BME280;3567;52.444;13.556;2023-02-01T05:50:14;100540.13;;;4.92;96.86
7052;BME280;3567;52.444;13.556;2023-02-01T05:52:39;100534.81;;;4.92;96.63
7052;BME280;3567;52.444;13.556;2023-02-01T05:55:05;100536.44;;;4.93;97.42
7052;BME280;3567;52.444;13.556;2023-02-01T05:57:30;100524.19;;;4.92;97.21
7052;BME280;3567;52.444;13.556;2023-02-01T05:59:56;100535.03;;;4.90;98.13
7052;BME280;3567;52.444;13.556;2023-02-01T06:02:21;100533.56;;;4.88;96.98
7052;BME280;3567;52.444;13.556;2023-02-01T06:04:46;100527.22;;;4.89;97.53
7052;BME280;3567;52.444;13.556;2023-02-01T06:07:12;100522.94;;;4.88;95.76
7052;BME280;3567;52.444;13.556;2023-02-01T06:09:37;100523.75;;;4.88;95.80
7052;BME280;3567;52.444;13.556;2023-02-01T06:12:03;100531.50;;;4.90;95.85
7052;BME280;3567;52.444;13.556;2023-02-01T06:14:29;100520.91;;;4.90;95.71
7052;BME280;3567;52.444;13.556;2023-02-01T06:16:54;100523.56;;;4.90;96.35
7052;BME280;3567;52.444;13.556;2023-02-01T06:19:20;100520.91;;;4.90;96.46
7052;BME280;3567;52.444;13.556;2023-02-01T06:21:46;100523.56;;;4.90;96.95
7052;BME280;3567;52.444;13.556;2023-02-01T06:24:12;100525.59;;;4.88;97.16
7052;BME280;3567;52.444;13.556;2023-02-01T06:26:37;100524.97;;;4.86;97.30
7052;BME280;3567;52.444;13.556;2023-02-01T06:29:04;100520.47;;;4.80;98.54
7052;BME280;3567;52.444;13.556;2023-02-01T06:31:29;100523.69;;;4.75;99.26
7052;BME280;3567;52.444;13.556;2023-02-01T06:33:57;100515.06;;;4.66;100.00
7052;BME280;3567;52.444;13.556;2023-02-01T06:36:22;100521.16;;;4.60;100.00
7052;BME280;3567;52.444;13.556;2023-02-01T06:38:47;100522.34;;;4.58;100.00
7052;BME280;3567;52.444;13.556;2023-02-01T06:41:13;100513.34;;;4.52;100.00
7052;BME280;3567;52.444;13.556;2023-02-01T06:43:39;100516.59;;;4.47;100.00
7052;BME280;3567;52.444;13.556;2023-02-01T06:46:07;100510.84;;;4.44;100.00
7052;BME280;3567;52.444;13.556;2023-02-01T06:48:33;100509.38;;;4.41;100.00
7052;BME280;3567;52.444;13.556;2023-02-01T06:50:58;100514.06;;;4.39;100.00
7052;BME280;3567;52.444;13.556;2023-02-01T06:53:24;100506.31;;;4.38;100.00
7052;BME280;3567;52.444;13.556;2023-02-01T06:56:00;100498.38;;;4.38;100.00
7052;BME280;3567;52.444;13.556;2023-02-01T06:58:31;100512.00;;;4.35;100.00
7052;BME280;3567;52.444;13.556;2023-02-01T07:00:56;100500.38;;;4.36;100.00
7052;BME280;3567;52.444;13.556;2023-02-01T07:03:22;100493.25;;;4.36;100.00
7052;BME280;3567;52.444;13.556;2023-02-01T07:05:47;100481.81;;;4.36;100.00
7052;BME280;3567;52.444;13.556;2023-02-01T07:08:12;100472.22;;;4.35;100.00
7052;BME280;3567;52.444;13.556;2023-02-01T07:10:38;100467.94;;;4.34;100.00
7052;BME280;3567;52.444;13.556;2023-02-01T07:13:03;100474.88;;;4.35;100.00
7052;BME280;3567;52.444;13.556;2023-02-01T07:15:29;100462.63;;;4.34;100.00
7052;BME280;3567;52.444;13.556;2023-02-01T07:17:55;100466.72;;;4.36;100.00
7052;BME280;3567;52.444;13.556;2023-02-01T07:20:20;100470.84;;;4.39;100.00
7052;BME280;3567;52.444;13.556;2023-02-01T07:22:46;100462.66;;;4.40;100.00
7052;BME280;3567;52.444;13.556;2023-02-01T07:25:11;100461.47;;;4.43;100.00
7052;BME280;3567;52.444;13.556;2023-02-01T07:27:37;100469.03;;;4.46;100.00
7052;BME280;3567;52.444;13.556;2023-02-01T07:30:06;100464.75;;;4.45;100.00
7052;BME280;3567;52.444;13.556;2023-02-01T07:32:31;100462.47;;;4.42;100.00
7052;BME280;3567;52.444;13.556;2023-02-01T07:34:57;100457.38;;;4.40;100.00
7052;BME280;3567;52.444;13.556;2023-02-01T07:37:23;100460.22;;;4.39;100.00
7052;BME280;3567;52.444;13.556;2023-02-01T07:39:52;100451.25;;;4.40;100.00
7052;BME280;3567;52.444;13.556;2023-02-01T07:42:17;100440.63;;;4.40;100.00
7052;BME280;3567;52.444;13.556;2023-02-01T07:44:43;100446.38;;;4.43;100.00
7052;BME280;3567;52.444;13.556;2023-02-01T07:47:08;100442.75;;;4.51;100.00
7052;BME280;3567;52.444;13.556;2023-02-01T07:49:34;100428.69;;;4.57;100.00
7052;BME280;3567;52.444;13.556;2023-02-01T07:51:59;100436.25;;;4.60;100.00
7052;BME280;3567;52.444;13.556;2023-02-01T07:54:25;100432.59;;;4.61;100.00
7052;BME280;3567;52.444;13.556;2023-02-01T07:56:50;100445.41;;;4.58;100.00
7052;BME280;3567;52.444;13.556;2023-02-01T07:59:15;100434.16;;;4.49;100.00
7052;BME280;3567;52.444;13.556;2023-02-01T08:01:41;100426.78;;;4.38;100.00
7052;BME280;3567;52.444;13.556;2023-02-01T08:04:09;100441.16;;;4.22;100.00
7052;BME280;3567;52.444;13.556;2023-02-01T08:06:35;100438.41;;;4.09;100.00
7052;BME280;3567;52.444;13.556;2023-02-01T08:09:02;100434.66;;;3.97;100.00
7052;BME280;3567;52.444;13.556;2023-02-01T08:11:27;100434.97;;;3.87;100.00
7052;BME280;3567;52.444;13.556;2023-02-01T08:13:53;100439.78;;;3.77;100.00
7052;BME280;3567;52.444;13.556;2023-02-01T08:16:20;100433.81;;;3.68;100.00
7052;BME280;3567;52.444;13.556;2023-02-01T08:18:46;100431.09;;;3.61;100.00
7052;BME280;3567;52.444;13.556;2023-02-01T08:21:14;100426.56;;;3.55;100.00
7052;BME280;3567;52.444;13.556;2023-02-01T08:23:41;100428.97;;;3.50;100.00
7052;BME280;3567;52.444;13.556;2023-02-01T08:26:21;100426.06;;;3.45;100.00
7052;BME280;3567;52.444;13.556;2023-02-01T08:28:50;100424.41;;;3.44;100.00
7052;BME280;3567;52.444;13.556;2023-02-01T08:31:18;100426.81;;;3.39;100.00
7052;BME280;3567;52.444;13.556;2023-02-01T08:33:49;100435.16;;;3.36;100.00
7052;BME280;3567;52.444;13.556;2023-02-01T08:36:14;100434.50;;;3.34;100.00
7052;BME280;3567;52.444;13.556;2023-02-01T08:38:40;100427.78;;;3.31;100.00
7052;BME280;3567;52.444;13.556;2023-02-01T08:41:13;100430.78;;;3.28;100.00
7052;BME280;3567;52.444;13.556;2023-02-01T08:43:39;100434.25;;;3.29;100.00
7052;BME280;3567;52.444;13.556;2023-02-01T08:46:05;100433.22;;;3.30;100.00
7052;BME280;3567;52.444;13.556;2023-02-01T08:48:31;100422.03;;;3.28;100.00
7052;BME280;3567;52.444;13.556;2023-02-01T08:50:56;100430.78;;;3.28;100.00
7052;BME280;3567;52.444;13.556;2023-02-01T08:53:22;100431.59;;;3.29;100.00
7052;BME280;3567;52.444;13.556;2023-02-01T08:55:47;100437.72;;;3.29;100.00
7052;BME280;3567;52.444;13.556;2023-02-01T08:58:13;100441.81;;;3.32;100.00
7052;BME280;3567;52.444;13.556;2023-02-01T09:03:13;100446.72;;;3.35;100.00
7052;BME280;3567;52.444;13.556;2023-02-01T09:05:39;100446.56;;;3.36;100.00
7052;BME280;3567;52.444;13.556;2023-02-01T09:08:04;100453.69;;;3.36;100.00
7052;BME280;3567;52.444;13.556;2023-02-01T09:10:30;100443.09;;;3.36;100.00
7052;BME280;3567;52.444;13.556;2023-02-01T09:12:56;100450.38;;;3.34;100.00
7052;BME280;3567;52.444;13.556;2023-02-01T09:15:22;100459.16;;;3.34;100.00
7052;BME280;3567;52.444;13.556;2023-02-01T09:17:47;100456.50;;;3.34;100.00
7052;BME280;3567;52.444;13.556;2023-02-01T09:20:13;100463.44;;;3.35;100.00
7052;BME280;3567;52.444;13.556;2023-02-01T09:22:39;100465.91;;;3.37;100.00
7052;BME280;3567;52.444;13.556;2023-02-01T09:25:05;100469.38;;;3.37;100.00
7052;BME280;3567;52.444;13.556;2023-02-01T09:27:30;100472.47;;;3.41;100.00
7052;BME280;3567;52.444;13.556;2023-02-01T09:29:55;100474.38;;;3.47;100.00
7052;BME280;3567;52.444;13.556;2023-02-01T09:32:22;100473.97;;;3.50;100.00
7052;BME280;3567;52.444;13.556;2023-02-01T09:34:49;100484.41;;;3.52;100.00
7052;BME280;3567;52.444;13.556;2023-02-01T09:37:15;100486.44;;;3.56;100.00
7052;BME280;3567;52.444;13.556;2023-02-01T09:39:40;100493.41;;;3.57;100.00
7052;BME280;3567;52.444;13.556;2023-02-01T09:47:12;100515.22;;;3.59;100.00
7052;BME280;3567;52.444;13.556;2023-02-01T09:49:46;100498.31;;;3.60;100.00
7052;BME280;3567;52.444;13.556;2023-02-01T09:52:13;100515.03;;;3.61;100.00
7052;BME280;3567;52.444;13.556;2023-02-01T09:54:50;100523.16;;;3.59;100.00
7052;BME280;3567;52.444;13.556;2023-02-01T09:57:24;100521.53;;;3.58;100.00
7052;BME280;3567;52.444;13.556;2023-02-01T09:59:59;100520.72;;;3.58;100.00
7052;BME280;3567;52.444;13.556;2023-02-01T10:02:27;100525.47;;;3.62;100.00
7052;BME280;3567;52.444;13.556;2023-02-01T10:04:55;100519.56;;;3.67;100.00
7052;BME280;3567;52.444;13.556;2023-02-01T10:10:07;100525.88;;;3.66;100.00
7052;BME280;3567;52.444;13.556;2023-02-01T10:15:35;100527.34;;;3.68;100.00
7052;BME280;3567;52.444;13.556;2023-02-01T10:18:15;100531.63;;;3.70;100.00
7052;BME280;3567;52.444;13.556;2023-02-01T10:26:08;100533.66;;;3.67;100.00
7052;BME280;3567;52.444;13.556;2023-02-01T10:28:38;100532.19;;;3.65;100.00
7052;BME280;3567;52.444;13.556;2023-02-01T10:31:05;100534.84;;;3.65;100.00
7052;BME280;3567;52.444;13.556;2023-02-01T10:33:41;100533.81;;;3.66;100.00
7052;BME280;3567;52.444;13.556;2023-02-01T10:36:16;100543.25;;;3.68;100.00
7052;BME280;3567;52.444;13.556;2023-02-01T10:38:45;100547.53;;;3.70;100.00
7052;BME280;3567;52.444;13.556;2023-02-01T10:41:14;100538.75;;;3.69;100.00
7052;BME280;3567;52.444;13.556;2023-02-01T10:43:41;100552.25;;;3.74;100.00
7052;BME280;3567;52.444;13.556;2023-02-01T10:46:07;100543.34;;;3.82;100.00
7052;BME280;3567;52.444;13.556;2023-02-01T10:48:33;100549.13;;;3.85;100.00
7052;BME280;3567;52.444;13.556;2023-02-01T10:51:00;100536.13;;;3.90;100.00
7052;BME280;3567;52.444;13.556;2023-02-01T10:53:46;100539.13;;;3.87;100.00
7052;BME280;3567;52.444;13.556;2023-02-01T10:56:13;100548.91;;;3.87;100.00
7052;BME280;3567;52.444;13.556;2023-02-01T10:58:46;100556.03;;;3.86;100.00
7052;BME280;3567;52.444;13.556;2023-02-01T11:01:26;100547.47;;;3.84;100.00
7052;BME280;3567;52.444;13.556;2023-02-01T11:04:01;100544.31;;;3.74;100.00
7052;BME280;3567;52.444;13.556;2023-02-01T11:06:31;100547.06;;;3.66;100.00
7052;BME280;3567;52.444;13.556;2023-02-01T11:09:11;100538.88;;;3.61;100.00
7052;BME280;3567;52.444;13.556;2023-02-01T11:14:19;100536.41;;;3.59;100.00
7052;BME280;3567;52.444;13.556;2023-02-01T11:16:51;100514.22;;;3.60;100.00
7052;BME280;3567;52.444;13.556;2023-02-01T11:19:17;100518.69;;;3.81;100.00
7052;BME280;3567;52.444;13.556;2023-02-01T11:21:43;100517.38;;;3.92;100.00
7052;BME280;3567;52.444;13.556;2023-02-01T11:24:23;100518.63;;;3.96;100.00
7052;BME280;3567;52.444;13.556;2023-02-01T11:26:49;100516.22;;;4.01;100.00
7052;BME280;3567;52.444;13.556;2023-02-01T11:29:18;100501.59;;;4.05;100.00
7052;BME280;3567;52.444;13.556;2023-02-01T11:31:47;100508.13;;;4.09;100.00
7052;BME280;3567;52.444;13.556;2023-02-01T11:34:18;100505.34;;;4.17;100.00
7052;BME280;3567;52.444;13.556;2023-02-01T11:36:46;100494.41;;;4.27;100.00
7052;BME280;3567;52.444;13.556;2023-02-01T11:44:34;100480.16;;;5.11;100.00
7052;BME280;3567;52.444;13.556;2023-02-01T11:47:19;100489.50;;;5.55;100.00
7052;BME280;3567;52.444;13.556;2023-02-01T11:49:46;100486.44;;;5.71;100.00
7052;BME280;3567;52.444;13.556;2023-02-01T12:22:47;100459.06;;;6.17;100.00
7052;BME280;3567;52.444;13.556;2023-02-01T12:25:26;100465.03;;;5.99;100.00
7052;BME280;3567;52.444;13.556;2023-02-01T12:30:41;100445.59;;;5.92;100.00
7052;BME280;3567;52.444;13.556;2023-02-01T12:36:18;100437.38;;;5.73;100.00
7052;BME280;3567;52.444;13.556;2023-02-01T12:46:53;100420.19;;;5.56;100.00
7052;BME280;3567;52.444;13.556;2023-02-01T12:52:11;100405.28;;;5.55;100.00
7052;BME280;3567;52.444;13.556;2023-02-01T12:54:57;100397.72;;;5.59;100.00
7052;BME280;3567;52.444;13.556;2023-02-01T12:57:31;100394.44;;;5.63;100.00
7052;BME280;3567;52.444;13.556;2023-02-01T13:00:17;100397.09;;;5.70;100.00
7052;BME280;3567;52.444;13.556;2023-02-01T13:02:57;100373.59;;;5.73;100.00
7052;BME280;3567;52.444;13.556;2023-02-01T13:05:34;100380.53;;;5.74;100.00
7052;BME280;3567;52.444;13.556;2023-02-01T13:08:11;100384.63;;;5.77;100.00
7052;BME280;3567;52.444;13.556;2023-02-01T13:10:41;100376.44;;;5.78;100.00
7052;BME280;3567;52.444;13.556;2023-02-01T13:13:21;100389.94;;;5.84;100.00
7052;BME280;3567;52.444;13.556;2023-02-01T13:15:55;100377.25;;;5.86;100.00
7052;BME280;3567;52.444;13.556;2023-02-01T13:18:25;100391.56;;;5.85;100.00
7052;BME280;3567;52.444;13.556;2023-02-01T13:21:19;100385.06;;;5.81;100.00
7052;BME280;3567;52.444;13.556;2023-02-01T13:23:47;100380.34;;;5.76;99.94
7052;BME280;3567;52.444;13.556;2023-02-01T13:26:14;100384.63;;;5.77;100.00
7052;BME280;3567;52.444;13.556;2023-02-01T13:34:04;100407.53;;;5.78;100.00
7052;BME280;3567;52.444;13.556;2023-02-01T13:42:01;100405.06;;;5.83;100.00
7052;BME280;3567;52.444;13.556;2023-02-01T13:44:41;100394.84;;;5.87;100.00
7052;BME280;3567;52.444;13.556;2023-02-01T13:49:48;100396.09;;;5.97;100.00
7052;BME280;3567;52.444;13.556;2023-02-01T13:57:50;100375.22;;;6.01;100.00
7052;BME280;3567;52.444;13.556;2023-02-01T14:00:34;100367.88;;;6.03;100.00
7052;BME280;3567;52.444;13.556;2023-02-01T14:10:54;100362.13;;;6.06;100.00
7052;BME280;3567;52.444;13.556;2023-02-01T14:23:45;100353.13;;;6.00;98.23
7052;BME280;3567;52.444;13.556;2023-02-01T14:26:17;100339.66;;;5.95;100.00
7052;BME280;3567;52.444;13.556;2023-02-01T14:31:40;100326.78;;;5.72;100.00
7052;BME280;3567;52.444;13.556;2023-02-01T14:35:00;100314.53;;;5.65;100.00
7052;BME280;3567;52.444;13.556;2023-02-01T14:37:07;100321.06;;;5.62;100.00
7052;BME280;3567;52.444;13.556;2023-02-01T14:40:02;100305.72;;;5.64;100.00
7052;BME280;3567;52.444;13.556;2023-02-01T15:01:17;100285.06;;;5.79;98.11
7052;BME280;3567;52.444;13.556;2023-02-01T15:06:33;100270.94;;;5.86;98.67
7052;BME280;3567;52.444;13.556;2023-02-01T15:11:56;100248.06;;;5.91;95.69
7052;BME280;3567;52.444;13.556;2023-02-01T15:14:23;100253.97;;;5.93;96.37
7052;BME280;3567;52.444;13.556;2023-02-01T15:16:48;100256.41;;;5.95;96.73
7052;BME280;3567;52.444;13.556;2023-02-01T15:19:20;100262.78;;;5.94;97.17
7052;BME280;3567;52.444;13.556;2023-02-01T15:21:53;100262.56;;;5.89;98.07
7052;BME280;3567;52.444;13.556;2023-02-01T15:24:24;100266.88;;;5.70;98.52
7052;BME280;3567;52.444;13.556;2023-02-01T15:26:51;100280.81;;;5.52;99.75
7052;BME280;3567;52.444;13.556;2023-02-01T15:29:18;100266.94;;;5.30;100.00
7052;BME280;3567;52.444;13.556;2023-02-01T15:31:46;100270.22;;;5.12;100.00
7052;BME280;3567;52.444;13.556;2023-02-01T15:34:12;100284.28;;;4.93;100.00
7052;BME280;3567;52.444;13.556;2023-02-01T15:36:38;100269.38;;;4.72;100.00
7052;BME280;3567;52.444;13.556;2023-02-01T15:39:36;100268.69;;;4.43;100.00
7052;BME280;3567;52.444;13.556;2023-02-01T15:42:22;100270.03;;;4.19;100.00
7052;BME280;3567;52.444;13.556;2023-02-01T15:44:47;100272.63;;;4.06;100.00
7052;BME280;3567;52.444;13.556;2023-02-01T15:47:16;100276.47;;;3.97;100.00
7052;BME280;3567;52.444;13.556;2023-02-01T15:49:45;100274.59;;;3.91;100.00
7052;BME280;3567;52.444;13.556;2023-02-01T15:52:39;100278.03;;;3.85;100.00
7052;BME280;3567;52.444;13.556;2023-02-01T15:55:08;100274.13;;;3.81;100.00
7052;BME280;3567;52.444;13.556;2023-02-01T15:57:42;100286.47;;;3.67;100.00
7052;BME280;3567;52.444;13.556;2023-02-01T16:00:28;100284.56;;;3.54;100.00